Time;durP1;ratioP1;P1;durP2;ratioP2;P2;SDS_P1;SDS_P2;PMS_P1;PMS_P2;Temp;Humidity;BMP_temperature;BMP_pressure;BME280_temperature;BME280_humidity;BME280_pressure;Samples;Min_cycle;Max_cycle;Signal;HPM_P1;HPM_P2
2023/11/26 00:01:35;;;;;;;3.72;1.77;;;6.40;95.70;;;;;;4967057;28;20379;-62
2023/11/26 00:04:01;;;;;;;7.55;2.30;;;6.30;95.70;;;;;;4967074;29;20027;-62
2023/11/26 00:06:27;;;;;;;5.18;1.67;;;6.30;95.80;;;;;;4967981;28;20487;-62
2023/11/26 00:08:52;;;;;;;5.20;1.85;;;6.30;95.80;;;;;;4966886;29;20042;-63
2023/11/26 00:11:18;;;;;;;7.53;2.28;;;6.30;95.80;;;;;;4968028;29;20027;-63
2023/11/26 00:13:43;;;;;;;8.52;2.10;;;6.30;95.80;;;;;;4966915;29;20031;-62
2023/11/26 00:16:09;;;;;;;5.75;2.00;;;6.30;95.80;;;;;;4966863;29;20028;-62
2023/11/26 00:18:37;;;;;;;4.72;1.95;;;6.30;95.80;;;;;;4967952;29;20086;-62
2023/11/26 00:21:03;;;;;;;4.10;1.92;;;6.30;95.80;;;;;;4966794;29;20073;-62
2023/11/26 00:23:28;;;;;;;9.02;1.80;;;6.30;95.80;;;;;;4966519;29;20047;-62
2023/11/26 00:25:54;;;;;;;2.25;1.33;;;6.30;95.80;;;;;;4966777;29;20038;-62
2023/11/26 00:28:19;;;;;;;6.45;1.88;;;6.30;95.80;;;;;;4966679;29;20106;-62
2023/11/26 00:30:45;;;;;;;5.05;2.00;;;6.30;95.80;;;;;;4966581;29;20099;-62
2023/11/26 00:33:11;;;;;;;12.05;2.20;;;6.30;95.80;;;;;;4966583;29;20019;-62
2023/11/26 00:35:37;;;;;;;3.67;1.50;;;6.30;95.80;;;;;;4966653;29;20074;-62
2023/11/26 00:38:02;;;;;;;4.70;1.67;;;6.30;95.90;;;;;;4967564;29;20105;-62
2023/11/26 00:40:28;;;;;;;4.40;1.77;;;6.30;95.90;;;;;;4966585;29;20139;-62
2023/11/26 00:42:53;;;;;;;4.70;1.80;;;6.20;95.90;;;;;;4966520;29;20426;-62
2023/11/26 00:45:19;;;;;;;4.63;1.63;;;6.20;95.90;;;;;;4967947;29;20043;-62
2023/11/26 00:47:45;;;;;;;5.20;1.90;;;6.30;96.00;;;;;;4967836;29;20443;-62
2023/11/26 00:50:11;;;;;;;3.90;1.50;;;6.30;96.30;;;;;;4967588;29;20031;-62
2023/11/26 00:52:37;;;;;;;5.18;1.83;;;6.20;96.00;;;;;;4967794;29;20035;-62
2023/11/26 00:55:03;;;;;;;3.38;1.90;;;6.20;96.00;;;;;;4966577;29;20034;-63
2023/11/26 00:57:28;;;;;;;2.30;1.50;;;6.20;96.00;;;;;;4966235;28;20103;-62
2023/11/26 00:59:54;;;;;;;4.22;1.55;;;6.20;96.00;;;;;;4967668;28;20034;-62
2023/11/26 01:02:23;;;;;;;5.32;1.50;;;6.20;96.00;;;;;;4971016;29;20027;-62
2023/11/26 01:04:48;;;;;;;4.35;1.80;;;6.20;96.00;;;;;;4971353;28;20031;-62
2023/11/26 01:07:14;;;;;;;6.20;1.85;;;6.20;96.00;;;;;;4970180;29;20034;-62
2023/11/26 01:09:40;;;;;;;4.95;1.50;;;6.30;96.00;;;;;;4970002;29;20035;-63
2023/11/26 01:12:06;;;;;;;6.13;1.70;;;6.20;96.00;;;;;;4971180;29;20114;-62
2023/11/26 01:14:31;;;;;;;3.67;1.45;;;6.20;96.00;;;;;;4971146;29;20063;-62
2023/11/26 01:16:57;;;;;;;4.57;1.63;;;6.20;96.00;;;;;;4969907;29;20483;-62
2023/11/26 01:19:22;;;;;;;2.35;1.27;;;6.20;96.00;;;;;;4969939;29;20031;-62
2023/11/26 01:21:48;;;;;;;4.28;1.55;;;6.20;96.10;;;;;;4969808;29;20023;-62
2023/11/26 01:24:14;;;;;;;5.07;1.40;;;6.20;96.10;;;;;;4969671;29;20092;-62
2023/11/26 01:26:40;;;;;;;4.05;1.75;;;6.20;96.10;;;;;;4969691;29;20031;-62
2023/11/26 01:29:05;;;;;;;5.70;1.77;;;6.20;96.10;;;;;;4953608;29;20062;-63
2023/11/26 01:31:31;;;;;;;3.70;1.25;;;6.20;96.20;;;;;;4970965;29;20023;-62
2023/11/26 01:33:57;;;;;;;5.55;1.80;;;6.20;96.20;;;;;;4969726;29;20050;-62
2023/11/26 01:36:24;;;;;;;5.05;1.77;;;6.20;96.20;;;;;;4970721;28;20027;-62
2023/11/26 01:38:49;;;;;;;3.75;1.30;;;6.20;96.20;;;;;;4970645;29;20040;-62
2023/11/26 01:41:15;;;;;;;3.85;1.35;;;6.20;96.30;;;;;;4969330;29;20364;-62
2023/11/26 01:43:40;;;;;;;3.22;1.60;;;6.20;96.30;;;;;;4969569;29;20032;-62
2023/11/26 01:46:12;;;;;;;5.60;1.75;;;6.20;96.30;;;;;;4970555;29;20503;-62
2023/11/26 01:48:38;;;;;;;4.53;1.70;;;6.10;96.30;;;;;;4969583;28;20045;-62
2023/11/26 01:51:05;;;;;;;4.45;1.75;;;6.10;96.30;;;;;;4969445;29;20062;-62
2023/11/26 01:53:30;;;;;;;3.65;1.33;;;6.20;96.30;;;;;;4969453;29;20046;-62
2023/11/26 01:55:56;;;;;;;5.22;1.63;;;6.20;96.30;;;;;;4969225;29;20523;-62
2023/11/26 01:58:22;;;;;;;2.80;1.25;;;6.20;96.30;;;;;;4969415;29;20035;-62
2023/11/26 02:00:49;;;;;;;3.53;1.67;;;6.20;96.30;;;;;;4969594;29;20042;-62
2023/11/26 02:03:14;;;;;;;2.65;1.17;;;6.10;96.30;;;;;;4969245;28;20027;-62
2023/11/26 02:05:40;;;;;;;6.28;1.48;;;6.20;96.30;;;;;;4970500;29;20033;-63
2023/11/26 02:08:06;;;;;;;3.53;1.77;;;6.20;96.40;;;;;;4969092;29;20027;-62
2023/11/26 02:10:31;;;;;;;2.42;1.25;;;6.10;96.40;;;;;;4968901;29;20103;-61
2023/11/26 02:13:01;;;;;;;3.83;1.63;;;6.10;96.40;;;;;;4969554;28;20035;-63
2023/11/26 02:15:27;;;;;;;3.33;1.42;;;6.10;96.40;;;;;;4970139;29;20050;-62
2023/11/26 02:17:53;;;;;;;3.92;1.48;;;6.10;96.50;;;;;;4968719;29;20087;-62
2023/11/26 02:20:18;;;;;;;4.65;1.35;;;6.10;96.50;;;;;;4970108;28;20594;-62
2023/11/26 02:22:44;;;;;;;2.60;1.20;;;6.10;96.50;;;;;;4968877;28;20055;-62
2023/11/26 02:25:09;;;;;;;2.75;1.23;;;6.10;96.50;;;;;;4969985;29;20037;-62
2023/11/26 02:27:35;;;;;;;3.20;1.20;;;6.10;96.60;;;;;;4968693;29;20034;-62
2023/11/26 02:30:01;;;;;;;2.10;1.08;;;6.10;96.60;;;;;;4968765;29;20027;-62
2023/11/26 02:32:26;;;;;;;3.33;1.20;;;6.00;96.60;;;;;;4968649;29;20036;-62
2023/11/26 02:34:52;;;;;;;2.72;1.25;;;6.10;96.70;;;;;;4968558;29;20027;-63
2023/11/26 02:37:17;;;;;;;2.42;1.00;;;6.00;96.70;;;;;;4968169;28;20027;-62
2023/11/26 02:39:43;;;;;;;2.65;1.30;;;6.00;96.80;;;;;;4968490;29;20027;-62
2023/11/26 02:42:09;;;;;;;2.38;1.25;;;6.00;96.80;;;;;;4952464;29;20058;-62
2023/11/26 02:44:35;;;;;;;4.90;1.52;;;6.00;96.80;;;;;;4968387;29;20024;-63
2023/11/26 02:47:01;;;;;;;3.53;1.50;;;6.00;96.80;;;;;;4969598;29;20091;-62
2023/11/26 02:49:26;;;;;;;3.85;1.55;;;6.00;96.80;;;;;;4968424;29;20082;-62
2023/11/26 02:51:53;;;;;;;2.30;1.05;;;6.00;96.80;;;;;;4968135;29;20027;-62
2023/11/26 02:54:19;;;;;;;2.83;1.27;;;6.00;96.80;;;;;;4952280;29;20042;-62
2023/11/26 02:56:45;;;;;;;2.40;1.10;;;6.00;96.80;;;;;;4968078;29;20019;-62
2023/11/26 02:59:11;;;;;;;4.03;1.55;;;6.00;96.80;;;;;;4968120;29;20035;-62
2023/11/26 03:01:36;;;;;;;3.63;1.20;;;6.00;96.80;;;;;;4968018;29;20126;-62
2023/11/26 03:04:02;;;;;;;3.80;1.15;;;6.00;96.80;;;;;;4968076;29;20035;-62
2023/11/26 03:06:27;;;;;;;2.13;1.38;;;6.00;96.80;;;;;;4968008;29;20034;-62
2023/11/26 03:09:00;;;;;;;2.58;1.38;;;6.00;96.80;;;;;;4968058;29;20035;-62
2023/11/26 03:14:16;;;;;;;3.45;1.55;;;6.00;96.80;;;;;;4969348;29;20046;-62
2023/11/26 03:16:44;;;;;;;2.10;1.05;;;6.00;96.80;;;;;;4967969;29;20442;-61
2023/11/26 03:19:12;;;;;;;3.08;1.30;;;6.00;96.80;;;;;;4967598;28;20191;-62
2023/11/26 03:21:40;;;;;;;2.10;1.20;;;6.00;96.80;;;;;;4968955;28;20023;-62
2023/11/26 03:24:07;;;;;;;3.17;1.02;;;6.00;96.80;;;;;;4966849;28;20067;-62
2023/11/26 03:26:33;;;;;;;2.55;1.23;;;6.00;96.80;;;;;;4968781;28;20035;-62
2023/11/26 03:28:58;;;;;;;3.22;1.20;;;6.00;96.80;;;;;;4967601;28;20062;-62
2023/11/26 03:31:24;;;;;;;2.97;1.08;;;6.00;96.80;;;;;;4967615;29;20062;-62
2023/11/26 03:33:52;;;;;;;3.08;1.40;;;6.00;96.90;;;;;;4968877;28;20035;-62
2023/11/26 03:36:17;;;;;;;3.65;1.20;;;6.00;96.90;;;;;;4968469;28;20483;-62
2023/11/26 03:38:43;;;;;;;3.15;1.35;;;6.00;96.80;;;;;;4967289;28;20099;-62
2023/11/26 03:41:08;;;;;;;3.78;1.33;;;6.00;96.80;;;;;;4968600;28;20027;-62
2023/11/26 03:43:35;;;;;;;2.92;1.25;;;6.00;96.80;;;;;;4967233;28;20034;-62
2023/11/26 03:46:01;;;;;;;3.50;1.50;;;6.00;96.90;;;;;;4967090;29;20027;-62
2023/11/26 03:48:27;;;;;;;2.28;0.93;;;6.00;96.90;;;;;;4967188;29;20095;-62
2023/11/26 03:50:52;;;;;;;2.05;1.00;;;6.00;96.90;;;;;;4968417;29;20042;-62
2023/11/26 03:53:18;;;;;;;3.00;1.42;;;6.00;96.90;;;;;;4967288;29;20039;-62
2023/11/26 03:55:44;;;;;;;1.83;1.10;;;5.90;96.90;;;;;;4967242;29;20028;-62
2023/11/26 03:58:10;;;;;;;2.42;1.27;;;6.00;96.90;;;;;;4968342;29;20042;-62
2023/11/26 04:00:36;;;;;;;2.35;1.25;;;6.00;96.90;;;;;;4966970;29;20054;-62
2023/11/26 04:03:02;;;;;;;3.15;1.25;;;6.00;96.90;;;;;;4982910;28;20033;-62
2023/11/26 04:05:28;;;;;;;3.50;1.30;;;5.90;97.00;;;;;;4982970;28;20061;-62
2023/11/26 04:07:53;;;;;;;1.88;1.08;;;6.00;97.00;;;;;;4983071;28;20032;-62
2023/11/26 04:10:19;;;;;;;2.83;1.13;;;5.90;97.00;;;;;;4982939;28;20618;-62
2023/11/26 04:12:45;;;;;;;4.15;1.30;;;5.90;97.00;;;;;;4982926;28;20037;-62
2023/11/26 04:15:11;;;;;;;2.55;1.00;;;6.00;97.00;;;;;;4982618;28;20042;-62
2023/11/26 04:17:36;;;;;;;4.00;1.45;;;5.90;97.00;;;;;;4968238;28;20031;-62
2023/11/26 04:20:05;;;;;;;2.65;1.30;;;6.00;97.00;;;;;;4968186;29;20499;-62
2023/11/26 04:22:32;;;;;;;2.38;1.08;;;6.00;96.90;;;;;;4966977;28;20031;-62
2023/11/26 04:24:58;;;;;;;1.65;1.10;;;6.00;97.00;;;;;;4982849;28;20038;-63
2023/11/26 04:27:24;;;;;;;2.40;1.05;;;5.90;96.90;;;;;;4968006;28;20038;-62
2023/11/26 04:29:50;;;;;;;2.85;1.27;;;5.90;97.00;;;;;;4967937;29;20027;-62
2023/11/26 04:32:16;;;;;;;2.60;1.10;;;5.90;97.00;;;;;;4966445;29;20484;-62
2023/11/26 04:34:42;;;;;;;3.63;1.30;;;6.00;97.00;;;;;;4967360;28;20042;-62
2023/11/26 04:37:17;;;;;;;2.35;1.10;;;6.00;97.00;;;;;;4986530;28;20058;-62
2023/11/26 04:39:43;;;;;;;3.35;1.40;;;6.00;97.00;;;;;;4985515;28;20054;-62
2023/11/26 04:42:09;;;;;;;1.25;1.00;;;5.90;97.00;;;;;;4971930;28;20082;-62
2023/11/26 04:44:34;;;;;;;2.83;1.08;;;6.00;97.00;;;;;;4971617;28;20032;-62
2023/11/26 04:47:00;;;;;;;2.58;1.35;;;5.90;97.00;;;;;;4986780;28;20028;-62
2023/11/26 04:49:26;;;;;;;3.38;1.20;;;5.90;97.00;;;;;;4970316;29;20509;-62
2023/11/26 04:51:51;;;;;;;2.45;1.10;;;5.90;97.30;;;;;;4986564;28;20031;-62
2023/11/26 04:54:17;;;;;;;2.35;1.20;;;5.90;97.00;;;;;;4971631;28;20063;-62
2023/11/26 04:56:43;;;;;;;2.30;1.10;;;5.90;97.00;;;;;;4971343;28;20035;-62
2023/11/26 04:59:08;;;;;;;3.03;1.50;;;5.90;97.10;;;;;;4971325;29;20039;-62
2023/11/26 05:01:35;;;;;;;3.35;1.25;;;5.90;97.10;;;;;;4971254;29;20024;-62
2023/11/26 05:04:01;;;;;;;1.92;1.10;;;5.90;97.10;;;;;;4971298;29;20035;-62
2023/11/26 05:06:27;;;;;;;2.17;1.02;;;5.90;97.10;;;;;;4971382;28;20031;-62
2023/11/26 05:08:52;;;;;;;3.00;1.10;;;5.90;97.10;;;;;;4986087;28;20031;-63
2023/11/26 05:11:18;;;;;;;2.65;1.30;;;5.90;97.20;;;;;;4971349;28;20030;-62
2023/11/26 05:13:45;;;;;;;3.78;1.15;;;5.90;97.20;;;;;;4986197;28;20476;-62
2023/11/26 05:16:11;;;;;;;3.90;1.20;;;5.90;97.20;;;;;;4986251;28;20027;-63
2023/11/26 05:18:37;;;;;;;3.17;1.27;;;5.90;97.20;;;;;;4986085;28;20046;-63
2023/11/26 05:21:02;;;;;;;5.45;1.60;;;5.90;97.20;;;;;;4971036;28;20027;-62
2023/11/26 05:23:28;;;;;;;2.67;1.40;;;5.90;97.40;;;;;;4971386;29;20027;-62
2023/11/26 05:25:54;;;;;;;1.85;1.10;;;5.90;97.10;;;;;;4986220;28;20070;-62
2023/11/26 05:28:20;;;;;;;1.23;0.80;;;5.90;97.20;;;;;;4985829;28;20062;-62
2023/11/26 05:30:45;;;;;;;3.08;1.30;;;5.80;97.20;;;;;;4969625;29;20031;-62
2023/11/26 05:33:11;;;;;;;1.83;1.10;;;5.90;97.20;;;;;;4985908;28;20452;-62
2023/11/26 05:35:37;;;;;;;3.17;1.45;;;5.90;97.20;;;;;;4970909;28;20122;-62
2023/11/26 05:38:03;;;;;;;1.75;1.20;;;5.90;97.20;;;;;;4970558;28;20495;-62
2023/11/26 05:40:29;;;;;;;2.45;1.10;;;5.90;97.20;;;;;;4985515;28;20031;-62
2023/11/26 05:42:56;;;;;;;3.08;1.08;;;5.90;97.10;;;;;;4985515;28;20055;-62
2023/11/26 05:45:21;;;;;;;2.17;0.93;;;5.90;97.20;;;;;;4985401;28;20038;-62
2023/11/26 05:47:47;;;;;;;2.38;1.17;;;5.80;97.10;;;;;;4984568;28;20031;-62
2023/11/26 05:50:12;;;;;;;3.83;1.40;;;5.90;97.10;;;;;;4985388;28;20387;-62
2023/11/26 05:52:38;;;;;;;2.38;1.17;;;5.80;97.10;;;;;;4970717;28;20038;-62
2023/11/26 05:55:06;;;;;;;1.30;0.90;;;5.80;97.10;;;;;;4985666;28;20030;-62
2023/11/26 05:57:32;;;;;;;1.73;1.00;;;5.90;97.10;;;;;;4970403;28;20106;-62
2023/11/26 05:59:59;;;;;;;4.28;1.20;;;5.90;97.10;;;;;;4985501;28;20054;-62
2023/11/26 06:02:25;;;;;;;2.15;1.17;;;5.90;97.10;;;;;;4970514;28;20035;-62
2023/11/26 06:04:51;;;;;;;1.55;1.02;;;5.90;97.10;;;;;;4970339;29;20034;-62
2023/11/26 06:07:17;;;;;;;3.50;1.35;;;5.90;97.10;;;;;;4985113;28;20035;-62
2023/11/26 06:09:42;;;;;;;2.00;1.10;;;5.80;97.00;;;;;;4970429;28;20424;-62
2023/11/26 06:12:08;;;;;;;1.98;1.08;;;5.90;97.10;;;;;;4970132;29;20035;-62
2023/11/26 06:14:33;;;;;;;4.53;1.80;;;5.90;97.10;;;;;;4970342;29;20042;-62
2023/11/26 06:16:59;;;;;;;2.78;1.38;;;5.90;97.00;;;;;;4970147;29;20479;-61
2023/11/26 06:19:25;;;;;;;1.17;0.93;;;5.90;97.00;;;;;;4970127;29;20130;-62
2023/11/26 06:21:50;;;;;;;1.45;1.05;;;5.90;97.10;;;;;;4970026;29;20023;-62
2023/11/26 06:24:16;;;;;;;3.25;1.35;;;5.90;97.00;;;;;;4970073;29;20030;-62
2023/11/26 06:26:42;;;;;;;2.28;1.20;;;5.80;97.00;;;;;;4969902;29;20034;-62
2023/11/26 06:29:07;;;;;;;1.33;0.85;;;5.90;97.00;;;;;;4969771;29;20043;-63
2023/11/26 06:31:34;;;;;;;2.03;1.00;;;5.90;97.00;;;;;;4969711;29;20047;-62
2023/11/26 06:33:59;;;;;;;1.55;1.08;;;5.80;97.00;;;;;;4969920;28;20027;-62
2023/11/26 06:36:25;;;;;;;2.72;1.00;;;5.80;97.00;;;;;;4984578;28;20094;-62
2023/11/26 06:38:54;;;;;;;2.58;1.00;;;5.80;97.00;;;;;;4968289;28;20058;-62
2023/11/26 06:41:28;;;;;;;2.20;1.15;;;5.80;97.10;;;;;;4984507;28;20046;-62
2023/11/26 06:43:56;;;;;;;4.72;1.48;;;5.80;97.10;;;;;;4969736;28;20456;-62
2023/11/26 06:46:22;;;;;;;4.95;1.33;;;5.80;97.10;;;;;;4968156;29;20460;-62
2023/11/26 06:48:48;;;;;;;1.88;1.00;;;5.80;97.00;;;;;;4984382;28;20050;-62
2023/11/26 06:51:14;;;;;;;3.10;1.08;;;5.80;97.00;;;;;;4969292;28;20070;-62
2023/11/26 06:53:39;;;;;;;2.38;0.95;;;5.80;97.00;;;;;;4984519;28;20058;-62
2023/11/26 06:56:06;;;;;;;1.77;1.10;;;5.80;97.00;;;;;;4984469;28;20035;-62
2023/11/26 06:58:43;;;;;;;3.38;1.20;;;5.80;97.10;;;;;;4984130;28;20054;-62
2023/11/26 07:01:09;;;;;;;1.75;1.00;;;5.80;97.00;;;;;;4984045;28;20078;-62
2023/11/26 07:03:35;;;;;;;1.67;1.13;;;5.80;97.00;;;;;;4984101;28;20027;-62
2023/11/26 07:06:01;;;;;;;2.55;1.17;;;5.80;97.00;;;;;;4969244;28;20041;-64
2023/11/26 07:08:27;;;;;;;1.77;0.95;;;5.80;97.00;;;;;;4983808;28;20082;-62
2023/11/26 07:10:53;;;;;;;2.38;1.30;;;5.80;97.00;;;;;;4983909;28;20046;-62
2023/11/26 07:13:19;;;;;;;1.48;1.02;;;5.80;97.00;;;;;;4984071;28;20539;-63
2023/11/26 07:15:45;;;;;;;4.07;1.20;;;5.80;97.00;;;;;;4983960;28;20047;-62
2023/11/26 07:18:12;;;;;;;4.60;1.67;;;5.80;97.00;;;;;;4983780;28;20031;-62
2023/11/26 07:20:37;;;;;;;1.27;0.93;;;5.80;97.00;;;;;;4968821;28;20036;-62
2023/11/26 07:23:03;;;;;;;3.65;1.20;;;5.80;97.00;;;;;;4983582;28;20070;-62
2023/11/26 07:25:29;;;;;;;3.00;1.30;;;5.80;97.00;;;;;;4967357;29;20031;-62
2023/11/26 07:27:57;;;;;;;3.00;1.00;;;5.80;97.00;;;;;;4968916;28;20038;-62
2023/11/26 07:30:23;;;;;;;2.10;1.02;;;5.80;97.00;;;;;;4969018;29;20046;-62
2023/11/26 07:32:50;;;;;;;2.45;1.23;;;5.80;97.00;;;;;;4983691;28;20031;-62
2023/11/26 07:35:16;;;;;;;2.55;1.30;;;5.80;97.00;;;;;;4967299;29;20047;-62
2023/11/26 07:37:41;;;;;;;3.33;1.00;;;5.80;97.00;;;;;;4983338;28;20046;-62
2023/11/26 07:40:12;;;;;;;3.95;1.30;;;5.80;97.00;;;;;;4968767;28;20031;-62
2023/11/26 07:42:40;;;;;;;2.47;1.30;;;5.80;97.00;;;;;;4968733;28;20090;-62
2023/11/26 07:45:06;;;;;;;1.60;1.15;;;5.80;97.00;;;;;;4983651;28;20028;-62
2023/11/26 07:47:32;;;;;;;2.28;0.95;;;5.80;96.90;;;;;;4983312;28;20054;-62
2023/11/26 07:49:57;;;;;;;2.72;1.13;;;5.80;97.00;;;;;;4983403;28;20031;-62
2023/11/26 07:52:23;;;;;;;1.83;1.13;;;5.80;97.00;;;;;;4983253;28;20035;-62
2023/11/26 07:54:49;;;;;;;2.15;1.15;;;5.80;97.00;;;;;;4967085;28;20090;-62
2023/11/26 07:57:15;;;;;;;2.55;1.17;;;5.80;96.90;;;;;;4983093;28;20027;-63
2023/11/26 07:59:43;;;;;;;3.03;1.23;;;5.80;96.90;;;;;;4968258;28;20049;-62
2023/11/26 08:02:10;;;;;;;3.40;1.30;;;5.90;96.90;;;;;;4966942;29;20065;-62
2023/11/26 08:04:37;;;;;;;3.17;1.10;;;5.90;96.90;;;;;;4983093;28;20122;-62
2023/11/26 08:07:03;;;;;;;1.52;0.90;;;5.90;96.90;;;;;;4966811;29;20038;-62
2023/11/26 08:09:31;;;;;;;2.85;1.00;;;5.90;96.90;;;;;;4966455;28;20036;-62
2023/11/26 08:12:00;;;;;;;1.67;1.05;;;5.90;96.80;;;;;;4968095;28;20058;-62
2023/11/26 08:14:26;;;;;;;2.55;1.20;;;5.90;96.90;;;;;;4966712;29;20460;-62
2023/11/26 08:16:54;;;;;;;1.65;0.93;;;5.90;96.80;;;;;;4982660;28;20035;-62
2023/11/26 08:19:20;;;;;;;1.58;0.98;;;5.90;96.80;;;;;;4982648;28;20032;-62
2023/11/26 08:21:45;;;;;;;3.20;1.25;;;5.90;96.80;;;;;;4982912;28;20162;-62
2023/11/26 08:24:15;;;;;;;2.65;1.00;;;5.90;96.70;;;;;;4968008;28;20031;-62
2023/11/26 08:26:41;;;;;;;2.33;1.15;;;5.90;96.70;;;;;;4966552;28;20024;-62
2023/11/26 08:29:09;;;;;;;3.47;1.20;;;5.90;96.70;;;;;;4982843;28;20031;-62
2023/11/26 08:31:37;;;;;;;3.08;1.20;;;6.00;96.70;;;;;;4982257;28;20031;-62
2023/11/26 08:34:05;;;;;;;2.47;1.27;;;6.00;96.60;;;;;;4967870;28;20099;-62
2023/11/26 08:36:33;;;;;;;2.65;1.20;;;6.00;96.60;;;;;;4982555;28;20034;-62
2023/11/26 08:39:00;;;;;;;1.45;1.00;;;6.00;96.50;;;;;;4982242;28;20041;-62
2023/11/26 08:41:25;;;;;;;1.38;0.90;;;6.00;96.50;;;;;;4982618;28;20031;-62
2023/11/26 08:43:51;;;;;;;3.45;1.20;;;6.00;96.50;;;;;;4982638;28;20034;-62
2023/11/26 08:46:18;;;;;;;2.00;1.05;;;6.00;96.40;;;;;;4982496;28;20059;-63
2023/11/26 08:48:44;;;;;;;2.28;1.30;;;6.00;96.40;;;;;;4982406;28;20032;-62
2023/11/26 08:51:10;;;;;;;1.65;1.05;;;6.10;96.40;;;;;;4982705;28;20031;-62
2023/11/26 08:53:36;;;;;;;2.08;1.10;;;6.10;96.40;;;;;;4982532;28;20067;-62
2023/11/26 08:56:02;;;;;;;2.78;1.30;;;6.10;96.40;;;;;;4966467;29;20028;-62
2023/11/26 08:58:27;;;;;;;2.33;1.20;;;6.10;96.40;;;;;;4967522;28;20090;-60
2023/11/26 09:00:53;;;;;;;2.33;1.15;;;6.10;96.30;;;;;;4982466;28;20027;-62
2023/11/26 09:03:19;;;;;;;1.92;1.13;;;6.10;96.40;;;;;;4966186;29;20032;-62
2023/11/26 09:05:44;;;;;;;3.15;1.10;;;6.10;96.40;;;;;;4982302;28;20384;-62
2023/11/26 09:08:10;;;;;;;2.42;1.48;;;6.10;96.40;;;;;;4966237;28;20023;-63
2023/11/26 09:10:35;;;;;;;11.45;2.17;;;6.10;96.40;;;;;;4982216;28;20027;-62
2023/11/26 09:13:01;;;;;;;11.15;1.60;;;6.20;96.50;;;;;;4967227;28;20066;-62
2023/11/26 09:15:28;;;;;;;7.60;1.95;;;6.20;96.50;;;;;;4982232;28;20039;-62
2023/11/26 09:17:54;;;;;;;13.57;1.67;;;6.20;96.50;;;;;;4967025;28;20036;-62
2023/11/26 09:20:19;;;;;;;11.32;2.10;;;6.20;96.50;;;;;;4967036;29;20078;-62
2023/11/26 09:22:48;;;;;;;10.88;2.45;;;6.20;96.50;;;;;;4969821;28;20032;-62
2023/11/26 09:25:13;;;;;;;10.18;2.00;;;6.30;96.50;;;;;;4985487;28;20475;-62
2023/11/26 09:27:40;;;;;;;14.73;2.20;;;6.30;96.50;;;;;;4971035;28;20067;-62
2023/11/26 09:30:08;;;;;;;17.25;2.85;;;6.30;96.50;;;;;;4970669;29;20038;-62
2023/11/26 09:32:34;;;;;;;15.82;3.60;;;6.40;96.50;;;;;;4970123;29;20035;-62
2023/11/26 09:34:59;;;;;;;20.13;2.67;;;6.30;96.50;;;;;;4970016;29;20035;-62
2023/11/26 09:37:25;;;;;;;19.60;3.25;;;6.40;96.50;;;;;;4984085;28;20038;-62
2023/11/26 09:39:50;;;;;;;19.02;3.03;;;6.40;96.60;;;;;;4970586;29;20031;-63
2023/11/26 09:42:21;;;;;;;33.50;4.80;;;6.40;96.50;;;;;;4970748;29;20028;-62
2023/11/26 09:44:47;;;;;;;40.65;4.22;;;6.40;96.60;;;;;;4985224;28;20031;-62
2023/11/26 09:47:14;;;;;;;29.52;4.20;;;6.40;96.60;;;;;;4985326;28;20027;-62
2023/11/26 09:49:42;;;;;;;32.20;5.10;;;6.50;96.60;;;;;;4985112;28;20031;-62
2023/11/26 09:52:08;;;;;;;47.78;5.90;;;6.50;96.70;;;;;;4984993;28;20088;-62
2023/11/26 09:54:34;;;;;;;42.15;6.80;;;6.50;96.70;;;;;;4984882;28;20023;-63
2023/11/26 09:57:00;;;;;;;50.15;6.97;;;6.50;96.70;;;;;;4984911;28;20070;-62
2023/11/26 09:59:26;;;;;;;98.53;8.68;;;6.50;96.80;;;;;;4984555;28;20062;-62
2023/11/26 10:01:52;;;;;;;52.13;7.03;;;6.50;97.00;;;;;;4983944;28;20654;-62
2023/11/26 10:04:17;;;;;;;80.95;7.47;;;6.60;97.00;;;;;;4968514;28;20051;-63
2023/11/26 10:06:49;;;;;;;70.90;7.63;;;6.60;96.90;;;;;;4968849;28;20031;-62
2023/11/26 10:09:18;;;;;;;59.70;6.78;;;6.70;97.00;;;;;;4951885;29;20033;-62
2023/11/26 10:11:44;;;;;;;75.20;7.30;;;6.70;96.80;;;;;;4968217;28;20028;-62
2023/11/26 10:14:16;;;;;;;76.97;8.52;;;6.70;96.80;;;;;;4969314;28;20028;-62
2023/11/26 10:16:42;;;;;;;101.68;10.82;;;6.70;96.90;;;;;;4984331;28;20031;-62
2023/11/26 10:19:10;;;;;;;95.50;13.75;;;6.80;97.10;;;;;;4969295;28;20050;-62
2023/11/26 10:21:36;;;;;;;77.50;9.43;;;6.80;97.10;;;;;;4967552;29;20174;-62
2023/11/26 10:24:02;;;;;;;240.90;18.52;;;6.80;97.20;;;;;;4983812;28;20499;-62
2023/11/26 10:26:29;;;;;;;146.02;13.35;;;6.80;97.20;;;;;;4982926;28;20087;-62
2023/11/26 10:29:23;;;;;;;151.68;16.60;;;6.90;97.10;;;;;;4974364;28;20421;-62
2023/11/26 10:31:59;;;;;;;107.43;12.30;;;6.90;97.10;;;;;;4982678;28;20038;-62
2023/11/26 10:34:25;;;;;;;134.60;17.55;;;7.00;97.20;;;;;;4967203;28;20039;-62
2023/11/26 10:36:50;;;;;;;127.18;14.75;;;7.00;97.20;;;;;;4974953;28;20042;-62
2023/11/26 10:39:17;;;;;;;131.57;12.75;;;7.00;97.20;;;;;;4978361;28;20039;-62
2023/11/26 10:41:44;;;;;;;136.85;15.82;;;7.10;97.30;;;;;;4955538;28;20043;-63
2023/11/26 10:44:10;;;;;;;142.88;13.80;;;7.10;97.40;;;;;;4981747;28;20027;-62
2023/11/26 10:46:36;;;;;;;170.13;14.90;;;7.10;97.40;;;;;;4984888;28;20078;-62
2023/11/26 10:49:08;;;;;;;137.95;14.20;;;7.20;97.50;;;;;;4969034;28;20027;-62
2023/11/26 10:51:34;;;;;;;162.50;15.77;;;7.20;97.50;;;;;;4983922;28;20035;-62
2023/11/26 10:54:14;;;;;;;146.65;15.55;;;7.20;97.60;;;;;;4967550;28;20027;-62
2023/11/26 10:56:41;;;;;;;151.18;15.55;;;7.30;97.50;;;;;;4966777;28;20038;-62
2023/11/26 10:59:14;;;;;;;160.75;16.83;;;7.20;97.50;;;;;;4979489;28;20031;-62
2023/11/26 11:01:40;;;;;;;123.80;15.10;;;7.30;97.50;;;;;;4962832;28;20038;-62
2023/11/26 11:04:08;;;;;;;147.57;13.75;;;7.40;97.40;;;;;;4957052;29;20083;-63
2023/11/26 11:06:35;;;;;;;116.25;14.82;;;7.40;97.20;;;;;;4965459;28;20043;-62
2023/11/26 11:09:02;;;;;;;165.68;16.20;;;7.40;97.20;;;;;;4978918;28;20036;-62
2023/11/26 11:11:36;;;;;;;137.90;14.40;;;7.40;97.20;;;;;;4982253;28;20043;-62
2023/11/26 11:14:02;;;;;;;138.18;15.35;;;7.40;97.20;;;;;;4971394;28;20057;-61
2023/11/26 11:16:28;;;;;;;135.05;17.20;;;7.50;97.30;;;;;;4969000;28;20035;-62
2023/11/26 11:18:56;;;;;;;178.63;18.17;;;7.50;97.20;;;;;;4966142;28;20031;-62
2023/11/26 11:21:22;;;;;;;138.70;17.05;;;7.50;97.10;;;;;;4969677;28;20083;-62
2023/11/26 11:23:53;;;;;;;165.75;18.00;;;7.50;96.90;;;;;;4982766;28;20031;-62
2023/11/26 11:26:20;;;;;;;181.55;17.50;;;7.60;97.00;;;;;;4979098;28;20032;-62
2023/11/26 11:28:49;;;;;;;175.70;17.50;;;7.60;97.10;;;;;;4979648;28;20087;-62
2023/11/26 11:31:22;;;;;;;204.75;19.50;;;7.60;97.10;;;;;;4977407;28;20035;-60
2023/11/26 11:34:11;;;;;;;193.95;18.58;;;7.60;97.00;;;;;;4982574;28;20035;-62
2023/11/26 11:36:47;;;;;;;222.82;20.40;;;7.60;97.10;;;;;;4959447;28;20098;-62
2023/11/26 11:39:14;;;;;;;191.82;20.65;;;7.60;97.00;;;;;;4980078;28;20031;-62
2023/11/26 11:42:00;;;;;;;245.70;21.83;;;7.70;97.00;;;;;;4968780;28;20028;-62
2023/11/26 11:44:34;;;;;;;227.48;21.38;;;7.70;97.00;;;;;;4960632;28;20023;-63
2023/11/26 11:47:03;;;;;;;231.05;22.90;;;7.70;97.10;;;;;;4951797;28;20027;-62
2023/11/26 11:49:51;;;;;;;288.90;28.48;;;7.70;97.20;;;;;;4972197;28;20031;-62
2023/11/26 11:52:17;;;;;;;302.08;29.50;;;7.70;97.30;;;;;;4966168;29;20031;-62
2023/11/26 11:54:55;;;;;;;214.43;24.95;;;7.80;97.40;;;;;;4978194;28;20051;-62
2023/11/26 11:57:23;;;;;;;228.93;24.15;;;7.80;97.60;;;;;;4958333;29;20031;-62
2023/11/26 11:59:49;;;;;;;238.38;23.73;;;7.80;97.50;;;;;;4974543;28;20091;-62
2023/11/26 12:02:14;;;;;;;257.00;29.13;;;7.90;97.40;;;;;;4982300;28;20067;-63
2023/11/26 12:04:41;;;;;;;203.52;23.48;;;7.90;97.50;;;;;;4943234;29;20028;-62
2023/11/26 12:07:07;;;;;;;246.48;27.85;;;8.00;97.40;;;;;;4971388;28;20059;-61
2023/11/26 12:09:37;;;;;;;219.23;24.70;;;7.90;97.40;;;;;;4973512;28;20094;-62
2023/11/26 12:12:03;;;;;;;207.75;25.52;;;8.00;97.30;;;;;;4978088;28;20141;-62
2023/11/26 12:14:28;;;;;;;190.93;26.63;;;8.00;97.20;;;;;;4962277;28;20062;-62
2023/11/26 12:16:54;;;;;;;239.68;27.40;;;8.10;97.30;;;;;;4964630;28;20423;-62
2023/11/26 12:19:20;;;;;;;238.35;25.45;;;8.10;97.20;;;;;;4947786;29;20031;-62
2023/11/26 12:21:45;;;;;;;243.95;26.75;;;8.20;97.10;;;;;;4964475;29;20087;-62
2023/11/26 12:24:21;;;;;;;251.80;27.00;;;8.20;97.00;;;;;;4964392;28;20447;-62
2023/11/26 12:26:47;;;;;;;342.05;35.35;;;8.20;96.90;;;;;;4976523;28;20042;-62
2023/11/26 12:29:21;;;;;;;249.98;28.77;;;8.30;96.60;;;;;;4962263;28;20062;-61
2023/11/26 12:31:47;;;;;;;288.50;28.55;;;8.30;96.50;;;;;;4964175;28;20051;-62
2023/11/26 12:34:12;;;;;;;247.25;26.65;;;8.40;96.40;;;;;;4963815;29;20039;-61
2023/11/26 12:36:38;;;;;;;247.88;26.98;;;8.40;96.30;;;;;;4975615;28;20062;-61
2023/11/26 12:39:04;;;;;;;256.48;26.85;;;8.40;96.20;;;;;;4972828;28;20035;-62
2023/11/26 12:41:30;;;;;;;278.25;27.80;;;8.40;96.30;;;;;;4978634;28;20053;-62
2023/11/26 12:44:01;;;;;;;249.70;28.30;;;8.40;96.50;;;;;;4970555;28;20032;-62
2023/11/26 12:46:27;;;;;;;268.55;26.70;;;8.50;96.40;;;;;;4982614;28;20043;-62
2023/11/26 12:48:54;;;;;;;332.17;31.25;;;8.50;96.30;;;;;;4980705;28;20035;-62
2023/11/26 12:51:19;;;;;;;308.02;31.02;;;8.50;96.20;;;;;;4975377;28;20062;-61